Time;durP1;ratioP1;P1;durP2;ratioP2;P2;SDS_P1;SDS_P2;PMS_P1;PMS_P2;Temp;Humidity;BMP_temperature;BMP_pressure;BME280_temperature;BME280_humidity;BME280_pressure;Samples;Min_cycle;Max_cycle;Signal;HPM_P1;HPM_P2
2024/02/18 00:00:22;;;;;;;;;;;14.30;64.00;;;;;;5043266;28;19940;-66
2024/02/18 00:02:53;;;;;;;;;;;14.30;64.10;;;;;;5048946;28;19928;-68
2024/02/18 00:05:21;;;;;;;;;;;14.30;63.90;;;;;;5052965;28;19924;-66
2024/02/18 00:07:50;;;;;;;;;;;14.30;64.00;;;;;;5052157;28;19929;-64
2024/02/18 00:10:18;;;;;;;;;;;14.30;64.00;;;;;;5065864;28;19939;-65
2024/02/18 00:12:48;;;;;;;;;;;14.30;63.80;;;;;;5069299;28;20015;-67
2024/02/18 00:15:16;;;;;;;;;;;14.30;63.70;;;;;;5044849;28;19933;-68
2024/02/18 00:17:45;;;;;;;;;;;14.30;63.70;;;;;;5067597;28;19928;-66
2024/02/18 00:20:15;;;;;;;;;;;14.30;63.80;;;;;;5068800;28;19986;-67
2024/02/18 00:22:43;;;;;;;;;;;14.30;63.80;;;;;;5061265;28;20408;-66
2024/02/18 00:25:12;;;;;;;;;;;14.30;63.80;;;;;;5047639;28;20388;-67
2024/02/18 00:27:40;;;;;;;;;;;14.40;63.70;;;;;;5052832;28;19968;-67
2024/02/18 00:30:11;;;;;;;;;;;14.30;63.50;;;;;;5066694;28;19925;-65
2024/02/18 00:32:40;;;;;;;;;;;14.30;63.50;;;;;;5051067;28;19940;-66
2024/02/18 00:35:08;;;;;;;;;;;14.30;63.50;;;;;;5069524;28;20404;-66
2024/02/18 00:37:37;;;;;;;;;;;14.30;63.50;;;;;;5049148;28;19965;-65
2024/02/18 00:40:06;;;;;;;;;;;14.20;63.40;;;;;;5040329;28;19936;-67
2024/02/18 00:42:34;;;;;;;;;;;14.20;63.40;;;;;;5054356;28;19928;-66
2024/02/18 00:45:02;;;;;;;;;;;14.20;63.50;;;;;;5048476;28;20777;-68
2024/02/18 00:47:32;;;;;;;;;;;14.10;63.30;;;;;;5051189;28;19960;-67
2024/02/18 00:50:00;;;;;;;;;;;14.10;63.30;;;;;;5048438;28;20035;-66
2024/02/18 00:52:29;;;;;;;;;;;14.00;63.20;;;;;;5048750;28;19928;-66
2024/02/18 00:54:57;;;;;;;;;;;13.90;63.20;;;;;;5042989;28;19935;-66
2024/02/18 00:57:25;;;;;;;;;;;13.80;63.20;;;;;;5050655;28;19947;-65
2024/02/18 00:59:53;;;;;;;;;;;13.70;63.30;;;;;;5045855;28;19932;-66
2024/02/18 01:02:22;;;;;;;;;;;13.60;63.30;;;;;;5055881;28;19928;-64
2024/02/18 01:04:52;;;;;;;;;;;13.50;63.20;;;;;;5045620;28;19983;-66
2024/02/18 01:07:20;;;;;;;;;;;13.50;63.40;;;;;;5052008;28;19986;-67
2024/02/18 01:09:49;;;;;;;;;;;13.40;63.30;;;;;;5050751;28;19933;-66
2024/02/18 01:12:17;;;;;;;;;;;13.30;63.30;;;;;;5055086;28;20060;-66
2024/02/18 01:14:46;;;;;;;;;;;13.20;63.30;;;;;;5048977;28;20022;-66
2024/02/18 01:17:14;;;;;;;;;;;13.10;63.40;;;;;;5052684;28;19924;-65
2024/02/18 01:19:42;;;;;;;;;;;13.00;63.40;;;;;;5054436;28;19928;-65
2024/02/18 01:22:13;;;;;;;;;;;13.00;63.50;;;;;;5051594;28;19994;-69
2024/02/18 01:24:41;;;;;;;;;;;12.90;63.40;;;;;;5053554;28;20402;-67
2024/02/18 01:27:09;;;;;;;;;;;12.90;63.50;;;;;;5062702;28;20019;-65
2024/02/18 01:29:38;;;;;;;;;;;12.80;63.60;;;;;;5056223;28;19944;-65
2024/02/18 01:32:07;;;;;;;;;;;12.80;63.70;;;;;;5051460;28;19948;-67
2024/02/18 01:34:35;;;;;;;;;;;12.70;63.60;;;;;;5056780;28;20429;-65
2024/02/18 01:37:04;;;;;;;;;;;12.70;63.60;;;;;;5048279;28;19939;-65
2024/02/18 01:39:34;;;;;;;;;;;12.60;63.70;;;;;;5056115;28;20023;-65
2024/02/18 01:42:02;;;;;;;;;;;12.60;63.70;;;;;;5050710;28;19931;-65
2024/02/18 01:44:30;;;;;;;;;;;12.60;63.70;;;;;;5053865;28;19989;-66
2024/02/18 01:46:59;;;;;;;;;;;12.50;63.70;;;;;;5039176;28;19924;-66
2024/02/18 01:49:30;;;;;;;;;;;12.50;63.70;;;;;;5049022;28;19995;-65
2024/02/18 01:51:58;;;;;;;;;;;12.50;63.60;;;;;;5067458;28;19935;-65
2024/02/18 01:54:32;;;;;;;;;;;12.50;63.80;;;;;;5056152;28;19929;-65
2024/02/18 01:57:05;;;;;;;;;;;12.50;63.70;;;;;;5046290;28;19928;-64
2024/02/18 01:59:35;;;;;;;;;;;12.40;63.60;;;;;;5053460;28;20371;-66
2024/02/18 02:02:03;;;;;;;;;;;12.40;63.70;;;;;;5052925;28;19924;-65
2024/02/18 02:04:32;;;;;;;;;;;12.40;63.70;;;;;;5052924;28;19936;-66
2024/02/18 02:07:00;;;;;;;;;;;12.30;63.60;;;;;;5040384;28;20017;-65
2024/02/18 02:09:29;;;;;;;;;;;12.30;63.60;;;;;;5053016;28;19940;-66
2024/02/18 02:11:58;;;;;;;;;;;12.30;63.70;;;;;;5052234;28;19933;-66
2024/02/18 02:14:27;;;;;;;;;;;12.30;63.80;;;;;;5047129;28;19936;-66
2024/02/18 02:16:56;;;;;;;;;;;12.30;63.90;;;;;;5042416;28;19928;-65
2024/02/18 02:19:24;;;;;;;;;;;12.40;64.00;;;;;;5054585;28;20404;-66
2024/02/18 02:21:52;;;;;;;;;;;12.40;64.10;;;;;;5050993;28;19930;-65
2024/02/18 02:24:21;;;;;;;;;;;12.60;64.80;;;;;;5054235;28;19935;-66
2024/02/18 02:26:50;;;;;;;;;;;12.70;64.00;;;;;;5044865;28;20446;-65
2024/02/18 02:29:20;;;;;;;;;;;12.80;63.90;;;;;;5049606;28;19998;-66
2024/02/18 02:31:48;;;;;;;;;;;12.90;63.80;;;;;;5049414;28;19935;-65
2024/02/18 02:34:17;;;;;;;;;;;12.90;63.50;;;;;;5052630;28;19943;-65
2024/02/18 02:36:46;;;;;;;;;;;12.90;63.40;;;;;;5043322;28;20033;-66
2024/02/18 02:39:15;;;;;;;;;;;13.00;63.50;;;;;;5053404;28;19935;-66
2024/02/18 02:41:43;;;;;;;;;;;13.00;63.30;;;;;;5050178;28;20317;-66
2024/02/18 02:44:11;;;;;;;;;;;13.00;63.30;;;;;;5053995;28;19985;-65
2024/02/18 02:46:41;;;;;;;;;;;13.00;63.20;;;;;;5045559;28;19960;-65
2024/02/18 02:49:09;;;;;;;;;;;13.00;63.20;;;;;;5052104;28;20035;-65
2024/02/18 02:51:38;;;;;;;;;;;12.90;63.10;;;;;;5055780;28;20027;-69
2024/02/18 02:54:06;;;;;;;;;;;12.90;63.10;;;;;;5053415;28;20413;-65
2024/02/18 02:56:35;;;;;;;;;;;12.80;62.80;;;;;;5052510;28;19928;-65
2024/02/18 02:59:03;;;;;;;;;;;12.70;62.80;;;;;;5048054;28;19928;-67
2024/02/18 03:01:31;;;;;;;;;;;12.50;62.80;;;;;;5050273;28;19976;-66
2024/02/18 03:04:01;;;;;;;;;;;12.40;63.10;;;;;;5055603;28;19958;-66
2024/02/18 03:06:29;;;;;;;;;;;12.30;63.20;;;;;;5051537;28;19964;-66
2024/02/18 03:08:58;;;;;;;;;;;12.30;63.30;;;;;;5058923;28;20500;-67
2024/02/18 03:11:26;;;;;;;;;;;12.70;63.70;;;;;;5053483;28;20500;-67
2024/02/18 03:13:54;;;;;;;;;;;12.20;63.30;;;;;;5051175;28;20239;-66
2024/02/18 03:16:23;;;;;;;;;;;12.10;63.40;;;;;;5067971;28;19968;-66
2024/02/18 03:18:51;;;;;;;;;;;12.10;63.30;;;;;;5044096;28;19935;-65
2024/02/18 03:21:23;;;;;;;;;;;12.10;63.40;;;;;;5051021;28;19924;-65
2024/02/18 03:23:53;;;;;;;;;;;12.10;63.50;;;;;;5051180;28;19928;-65
2024/02/18 03:26:21;;;;;;;;;;;12.10;63.50;;;;;;5053243;28;20116;-64
2024/02/18 03:28:49;;;;;;;;;;;12.10;63.50;;;;;;5042875;28;20849;-66
2024/02/18 03:31:18;;;;;;;;;;;12.10;63.40;;;;;;5052044;28;20718;-66
2024/02/18 03:33:46;;;;;;;;;;;12.00;63.40;;;;;;5062896;28;19971;-65
2024/02/18 03:36:15;;;;;;;;;;;12.00;63.40;;;;;;5066686;28;19933;-65
2024/02/18 03:38:45;;;;;;;;;;;12.00;63.50;;;;;;5049867;28;19924;-65
2024/02/18 03:41:14;;;;;;;;;;;12.10;63.50;;;;;;5050909;28;19940;-65
2024/02/18 03:43:42;;;;;;;;;;;12.20;63.60;;;;;;5048663;28;19932;-65
2024/02/18 03:46:10;;;;;;;;;;;12.20;63.40;;;;;;5054989;28;20343;-65
2024/02/18 03:48:38;;;;;;;;;;;12.20;63.30;;;;;;5048020;28;19936;-67
2024/02/18 03:51:07;;;;;;;;;;;12.30;63.40;;;;;;5039132;28;19924;-64
2024/02/18 03:53:35;;;;;;;;;;;12.40;63.30;;;;;;5050176;28;20017;-65
2024/02/18 03:56:05;;;;;;;;;;;12.40;63.20;;;;;;5054365;28;20313;-65
2024/02/18 03:58:37;;;;;;;;;;;12.40;63.10;;;;;;5049940;28;19935;-66
2024/02/18 04:01:05;;;;;;;;;;;12.50;63.10;;;;;;5044697;28;19932;-64
2024/02/18 04:03:34;;;;;;;;;;;12.60;63.30;;;;;;5051262;28;19968;-64
2024/02/18 04:06:02;;;;;;;;;;;12.60;63.10;;;;;;5051329;28;19935;-65
2024/02/18 04:08:30;;;;;;;;;;;12.60;63.00;;;;;;5065711;28;20398;-65
2024/02/18 04:10:58;;;;;;;;;;;12.60;62.80;;;;;;5053046;28;19951;-65
2024/02/18 04:13:28;;;;;;;;;;;12.60;63.00;;;;;;5051539;28;19927;-64
2024/02/18 04:15:56;;;;;;;;;;;12.60;63.00;;;;;;5052682;28;20379;-64
2024/02/18 04:18:25;;;;;;;;;;;12.60;63.80;;;;;;5051239;28;19924;-68
2024/02/18 04:20:53;;;;;;;;;;;12.70;63.00;;;;;;5049672;28;19928;-66
2024/02/18 04:23:21;;;;;;;;;;;12.70;62.90;;;;;;5047711;28;19928;-66
2024/02/18 04:25:49;;;;;;;;;;;12.70;62.80;;;;;;5053795;28;19947;-65
2024/02/18 04:28:18;;;;;;;;;;;12.80;63.60;;;;;;5051386;28;19954;-65
2024/02/18 04:30:47;;;;;;;;;;;12.80;62.80;;;;;;5051839;28;19967;-65
2024/02/18 04:33:15;;;;;;;;;;;12.80;62.80;;;;;;5046003;28;20294;-66
2024/02/18 04:35:44;;;;;;;;;;;12.80;62.80;;;;;;5053237;28;20014;-66
2024/02/18 04:38:12;;;;;;;;;;;12.80;62.80;;;;;;5051894;28;19958;-66
2024/02/18 04:40:41;;;;;;;;;;;12.80;62.70;;;;;;5054339;28;19932;-65
2024/02/18 04:43:09;;;;;;;;;;;12.80;62.70;;;;;;5051348;28;19929;-67
2024/02/18 04:45:38;;;;;;;;;;;12.80;62.70;;;;;;5054224;28;20018;-64
2024/02/18 04:48:08;;;;;;;;;;;12.80;62.60;;;;;;5057049;28;19978;-65
2024/02/18 04:50:37;;;;;;;;;;;12.80;62.60;;;;;;5054394;28;20282;-64
2024/02/18 04:53:05;;;;;;;;;;;12.80;62.60;;;;;;5056177;28;20019;-65
2024/02/18 04:55:33;;;;;;;;;;;12.80;62.60;;;;;;5061773;28;20011;-66
2024/02/18 04:58:02;;;;;;;;;;;12.80;62.60;;;;;;5057052;28;20355;-65
2024/02/18 05:00:30;;;;;;;;;;;12.80;62.70;;;;;;5053744;28;19925;-65
2024/02/18 05:02:59;;;;;;;;;;;12.80;62.60;;;;;;5052506;28;19936;-65
2024/02/18 05:05:28;;;;;;;;;;;12.40;62.30;;;;;;5054419;28;20016;-65
2024/02/18 05:07:57;;;;;;;;;;;12.90;62.50;;;;;;5054052;28;20333;-66
2024/02/18 05:10:25;;;;;;;;;;;12.90;62.40;;;;;;5052865;28;20628;-65
2024/02/18 05:12:54;;;;;;;;;;;12.90;62.30;;;;;;5054156;28;19984;-64
2024/02/18 05:15:24;;;;;;;;;;;12.90;62.30;;;;;;5055133;28;19925;-65
2024/02/18 05:17:52;;;;;;;;;;;12.90;62.20;;;;;;5049115;28;20016;-65
2024/02/18 05:20:20;;;;;;;;;;;12.90;62.20;;;;;;5055553;28;20011;-65
2024/02/18 05:22:50;;;;;;;;;;;12.90;62.20;;;;;;5070000;28;19932;-64
2024/02/18 05:25:18;;;;;;;;;;;12.90;62.30;;;;;;5055001;28;20414;-65
2024/02/18 05:27:46;;;;;;;;;;;12.90;62.20;;;;;;5049065;28;20310;-66
2024/02/18 05:30:15;;;;;;;;;;;12.80;62.10;;;;;;5056782;28;19931;-66
2024/02/18 05:32:43;;;;;;;;;;;12.80;62.20;;;;;;5051885;28;19928;-66
2024/02/18 05:35:11;;;;;;;;;;;12.70;62.10;;;;;;5056814;28;19928;-67
2024/02/18 05:37:40;;;;;;;;;;;12.70;62.10;;;;;;5062162;28;19928;-68
2024/02/18 05:40:10;;;;;;;;;;;12.60;62.10;;;;;;5047236;28;20390;-67
2024/02/18 05:42:39;;;;;;;;;;;12.50;62.20;;;;;;5054106;28;19928;-67
2024/02/18 05:45:07;;;;;;;;;;;12.50;62.20;;;;;;5053470;28;19928;-68
2024/02/18 05:47:36;;;;;;;;;;;12.40;62.20;;;;;;5053099;28;19932;-68
2024/02/18 05:50:04;;;;;;;;;;;12.40;62.30;;;;;;5051822;28;19934;-67
2024/02/18 05:52:33;;;;;;;;;;;12.30;62.20;;;;;;5050551;28;19924;-66
2024/02/18 05:55:01;;;;;;;;;;;12.20;62.30;;;;;;5054895;28;20383;-68
2024/02/18 05:57:31;;;;;;;;;;;12.20;62.30;;;;;;5049527;28;19925;-67
2024/02/18 05:59:59;;;;;;;;;;;12.10;62.30;;;;;;5055556;28;19932;-67
2024/02/18 06:02:27;;;;;;;;;;;12.10;62.40;;;;;;5045611;28;20033;-65
2024/02/18 06:04:55;;;;;;;;;;;12.00;62.40;;;;;;5057071;28;20348;-66
2024/02/18 06:07:24;;;;;;;;;;;12.00;62.40;;;;;;5053765;28;20026;-66
2024/02/18 06:09:52;;;;;;;;;;;12.00;62.50;;;;;;5052124;28;19935;-67
2024/02/18 06:12:21;;;;;;;;;;;12.00;62.50;;;;;;5050944;28;19932;-65
2024/02/18 06:14:50;;;;;;;;;;;12.10;62.60;;;;;;5047912;28;19939;-64
2024/02/18 06:17:19;;;;;;;;;;;12.10;62.50;;;;;;5053690;28;19928;-67
2024/02/18 06:19:47;;;;;;;;;;;12.10;62.40;;;;;;5055290;28;20457;-67
2024/02/18 06:22:15;;;;;;;;;;;12.10;62.50;;;;;;5055559;28;20302;-67
2024/02/18 06:24:44;;;;;;;;;;;12.10;62.40;;;;;;5055418;28;19932;-64
2024/02/18 06:27:12;;;;;;;;;;;12.20;62.50;;;;;;5049302;28;19928;-67
2024/02/18 06:29:41;;;;;;;;;;;12.20;62.40;;;;;;5052826;28;19929;-66
2024/02/18 06:32:10;;;;;;;;;;;12.20;62.30;;;;;;5051004;28;19936;-66
2024/02/18 06:34:38;;;;;;;;;;;12.20;62.20;;;;;;5053436;28;19924;-66
2024/02/18 06:37:07;;;;;;;;;;;12.10;62.30;;;;;;5042635;28;20861;-65
2024/02/18 06:39:35;;;;;;;;;;;12.20;62.50;;;;;;5051991;28;20327;-67
2024/02/18 06:42:03;;;;;;;;;;;12.20;62.50;;;;;;5047804;28;19924;-65
2024/02/18 06:44:32;;;;;;;;;;;12.30;62.50;;;;;;5049143;28;19955;-69
2024/02/18 06:47:00;;;;;;;;;;;12.40;62.60;;;;;;5060508;28;20551;-65
2024/02/18 06:49:31;;;;;;;;;;;12.50;62.60;;;;;;5065117;28;20734;-67
2024/02/18 06:51:59;;;;;;;;;;;12.60;62.40;;;;;;5047538;28;19939;-65
2024/02/18 06:54:28;;;;;;;;;;;12.70;62.40;;;;;;5050707;28;20040;-67
2024/02/18 06:56:56;;;;;;;;;;;12.80;62.30;;;;;;5054262;28;19935;-69
2024/02/18 06:59:24;;;;;;;;;;;12.90;62.20;;;;;;5049328;28;20341;-66
2024/02/18 07:01:53;;;;;;;;;;;13.00;62.10;;;;;;5048298;28;20551;-66
2024/02/18 07:04:23;;;;;;;;;;;13.00;62.00;;;;;;5051501;28;19931;-66
2024/02/18 07:06:54;;;;;;;;;;;13.10;62.10;;;;;;5052333;28;19943;-68
2024/02/18 07:09:22;;;;;;;;;;;13.00;61.80;;;;;;5052707;28;20033;-66
2024/02/18 07:11:51;;;;;;;;;;;13.00;61.60;;;;;;5048220;28;19956;-69
2024/02/18 07:14:19;;;;;;;;;;;12.90;61.40;;;;;;5051812;28;19933;-68
2024/02/18 07:16:47;;;;;;;;;;;12.80;61.40;;;;;;5045373;28;19929;-67
2024/02/18 07:19:16;;;;;;;;;;;12.60;61.30;;;;;;5046768;28;20469;-67
2024/02/18 07:21:46;;;;;;;;;;;12.50;61.50;;;;;;5053383;28;22067;-65
2024/02/18 07:24:15;;;;;;;;;;;12.40;61.60;;;;;;5052766;28;19934;-66
2024/02/18 07:26:44;;;;;;;;;;;12.40;61.90;;;;;;5038983;28;20445;-67
2024/02/18 07:29:12;;;;;;;;;;;12.30;62.20;;;;;;5054123;28;19956;-66
2024/02/18 07:31:41;;;;;;;;;;;12.40;62.50;;;;;;5051620;28;19967;-65
2024/02/18 07:34:09;;;;;;;;;;;12.50;62.70;;;;;;5053878;28;19928;-66
2024/02/18 07:36:38;;;;;;;;;;;12.70;62.60;;;;;;5052311;28;19955;-67
2024/02/18 07:39:07;;;;;;;;;;;12.80;62.20;;;;;;5068048;28;21464;-69
2024/02/18 07:41:36;;;;;;;;;;;12.70;61.90;;;;;;5054839;28;19929;-66
2024/02/18 07:44:05;;;;;;;;;;;12.70;61.90;;;;;;5043427;28;19928;-67
2024/02/18 07:46:33;;;;;;;;;;;12.70;62.00;;;;;;5051146;28;20010;-66
2024/02/18 07:49:02;;;;;;;;;;;12.60;61.90;;;;;;5050396;28;19993;-65
2024/02/18 07:51:30;;;;;;;;;;;12.60;61.90;;;;;;5047803;28;19935;-69
2024/02/18 07:53:58;;;;;;;;;;;12.60;61.90;;;;;;5049801;28;20511;-66
2024/02/18 07:56:27;;;;;;;;;;;12.50;62.10;;;;;;5049846;28;20021;-67
2024/02/18 07:58:56;;;;;;;;;;;12.50;62.00;;;;;;5064134;28;20442;-69
2024/02/18 08:01:24;;;;;;;;;;;12.50;62.10;;;;;;5050787;28;19929;-67
2024/02/18 08:03:53;;;;;;;;;;;12.50;62.30;;;;;;5057234;28;20761;-67
2024/02/18 08:06:21;;;;;;;;;;;12.60;62.30;;;;;;5048561;28;19925;-65
2024/02/18 08:08:50;;;;;;;;;;;12.60;62.40;;;;;;5043342;28;20047;-65
2024/02/18 08:11:18;;;;;;;;;;;12.60;62.60;;;;;;5054036;28;19928;-67
2024/02/18 08:13:46;;;;;;;;;;;12.60;62.60;;;;;;5052655;28;20373;-66
2024/02/18 08:16:16;;;;;;;;;;;12.70;62.60;;;;;;5045605;28;19932;-67
2024/02/18 08:18:45;;;;;;;;;;;12.80;62.70;;;;;;5049118;28;19959;-66
2024/02/18 08:21:15;;;;;;;;;;;12.90;62.70;;;;;;5044975;28;20461;-66
2024/02/18 08:23:44;;;;;;;;;;;13.10;62.60;;;;;;5051497;28;19967;-69
2024/02/18 08:26:20;;;;;;;;;;;13.30;62.90;;;;;;5050587;28;20386;-66
2024/02/18 08:28:49;;;;;;;;;;;14.00;64.80;;;;;;5050732;28;20402;-65
2024/02/18 08:31:18;;;;;;;;;;;15.50;65.40;;;;;;5043420;28;19928;-64
2024/02/18 08:33:53;;;;;;;;;;;16.70;64.80;;;;;;5028678;28;20680;-63
2024/02/18 08:36:41;;;;;;;;;;;18.00;63.90;;;;;;5050382;28;20394;-66
2024/02/18 08:39:16;;;;;;;;;;;19.30;62.20;;;;;;5042852;28;20296;-65
2024/02/18 08:41:50;;;;;;;;;;;20.40;61.20;;;;;;5080083;28;19943;-66
2024/02/18 08:44:20;;;;;;;;;;;21.30;59.80;;;;;;5050556;28;19952;-65
2024/02/18 08:46:50;;;;;;;;;;;21.60;58.50;;;;;;5037858;28;19933;-64
2024/02/18 08:49:18;;;;;;;;;;;22.00;58.50;;;;;;5045484;28;20371;-65
2024/02/18 08:51:47;;;;;;;;;;;22.60;58.50;;;;;;5038018;28;20511;-65
2024/02/18 08:54:15;;;;;;;;;;;23.10;57.90;;;;;;5059121;28;19946;-66
2024/02/18 08:56:44;;;;;;;;;;;23.50;57.10;;;;;;5060811;28;19928;-66
2024/02/18 08:59:12;;;;;;;;;;;23.80;56.20;;;;;;5045978;28;20025;-68
2024/02/18 09:01:41;;;;;;;;;;;24.30;56.10;;;;;;5041689;28;19935;-68
2024/02/18 09:04:10;;;;;;;;;;;24.90;55.60;;;;;;5044585;28;20465;-65
2024/02/18 09:06:39;;;;;;;;;;;25.20;55.00;;;;;;5048696;28;19924;-65
2024/02/18 09:09:08;;;;;;;;;;;25.60;54.80;;;;;;5060542;28;20019;-67
2024/02/18 09:11:37;;;;;;;;;;;26.10;54.70;;;;;;5039260;28;19932;-67
2024/02/18 09:14:05;;;;;;;;;;;26.60;54.60;;;;;;5046377;28;19936;-66
2024/02/18 09:16:34;;;;;;;;;;;27.20;54.10;;;;;;5047769;28;19932;-70
2024/02/18 09:19:02;;;;;;;;;;;27.50;53.60;;;;;;5058000;28;19940;-65
2024/02/18 09:21:32;;;;;;;;;;;27.90;53.70;;;;;;5042566;28;19933;-64
2024/02/18 09:24:00;;;;;;;;;;;28.20;53.40;;;;;;5042760;28;20399;-64
2024/02/18 09:26:29;;;;;;;;;;;28.70;53.80;;;;;;5056927;28;19928;-66
2024/02/18 09:28:57;;;;;;;;;;;29.30;53.40;;;;;;5056474;28;19951;-67
2024/02/18 09:31:26;;;;;;;;;;;29.90;53.00;;;;;;5045269;28;19939;-66
2024/02/18 09:33:54;;;;;;;;;;;30.30;52.50;;;;;;5040953;28;19932;-67
2024/02/18 09:36:23;;;;;;;;;;;30.70;52.10;;;;;;5052106;28;20230;-66
2024/02/18 09:38:52;;;;;;;;;;;31.00;51.60;;;;;;5049959;28;19952;-65
2024/02/18 09:41:21;;;;;;;;;;;31.40;51.60;;;;;;5052361;28;19935;-66
2024/02/18 09:43:51;;;;;;;;;;;31.90;51.40;;;;;;5061174;28;20351;-65
2024/02/18 09:46:20;;;;;;;;;;;32.40;51.00;;;;;;5048185;28;20412;-66
2024/02/18 09:48:49;;;;;;;;;;;32.70;50.60;;;;;;5051926;28;19937;-64
2024/02/18 09:51:18;;;;;;;;;;;32.90;50.20;;;;;;5057748;28;20401;-66
2024/02/18 09:53:47;;;;;;;;;;;33.20;50.30;;;;;;5047623;28;20035;-67
2024/02/18 09:56:16;;;;;;;;;;;33.40;50.20;;;;;;5053155;28;19972;-67
2024/02/18 09:58:45;;;;;;;;;;;33.60;50.00;;;;;;5052740;28;19963;-69
2024/02/18 10:01:15;;;;;;;;;;;33.70;49.60;;;;;;5057041;28;19933;-68
2024/02/18 10:03:44;;;;;;;;;;;33.50;48.90;;;;;;5042877;28;19943;-67
2024/02/18 10:06:13;;;;;;;;;;;33.10;48.80;;;;;;5056854;28;21515;-67
2024/02/18 10:08:43;;;;;;;;;;;32.70;48.90;;;;;;5055283;28;20398;-67
2024/02/18 10:11:11;;;;;;;;;;;32.70;49.80;;;;;;5055577;28;20334;-66
2024/02/18 10:13:41;;;;;;;;;;;32.80;49.50;;;;;;5044403;28;19932;-68
2024/02/18 10:16:09;;;;;;;;;;;32.90;49.60;;;;;;5052647;28;19928;-66
2024/02/18 10:18:37;;;;;;;;;;;32.90;49.20;;;;;;5051699;28;19929;-67
2024/02/18 10:21:07;;;;;;;;;;;32.60;47.80;;;;;;5057850;28;20024;-67
2024/02/18 10:23:37;;;;;;;;;;;32.20;47.50;;;;;;5050745;28;19981;-65
2024/02/18 10:26:07;;;;;;;;;;;31.80;47.90;;;;;;5068018;28;20522;-67
2024/02/18 10:28:36;;;;;;;;;;;31.70;48.60;;;;;;5056772;28;19936;-69
2024/02/18 10:31:10;;;;;;;;;;;32.00;49.00;;;;;;5056592;28;19932;-67
2024/02/18 10:33:39;;;;;;;;;;;32.50;48.80;;;;;;5047918;28;20356;-68
2024/02/18 10:36:08;;;;;;;;;;;32.60;47.60;;;;;;5052015;28;20034;-68
2024/02/18 10:38:40;;;;;;;;;;;32.60;47.90;;;;;;5054912;28;20341;-67
2024/02/18 10:41:13;;;;;;;;;;;32.60;47.40;;;;;;5058711;28;19958;-66
2024/02/18 10:43:45;;;;;;;;;;;32.60;47.70;;;;;;5042880;28;21346;-69
2024/02/18 10:46:19;;;;;;;;;;;32.90;47.70;;;;;;5074779;28;19946;-67
2024/02/18 10:48:50;;;;;;;;;;;33.10;47.40;;;;;;5055990;28;20959;-67
2024/02/18 10:51:23;;;;;;;;;;;33.30;47.10;;;;;;5079289;28;19970;-67
2024/02/18 10:53:56;;;;;;;;;;;33.40;46.10;;;;;;5043687;28;19932;-66
2024/02/18 10:56:24;;;;;;;;;;;32.80;45.80;;;;;;5055584;28;20326;-67
2024/02/18 10:58:58;;;;;;;;;;;32.00;45.30;;;;;;5064370;28;19928;-68
2024/02/18 11:01:29;;;;;;;;;;;31.60;45.80;;;;;;5054056;28;20002;-67
2024/02/18 11:03:59;;;;;;;;;;;31.20;46.20;;;;;;5049783;28;19991;-68
2024/02/18 11:06:29;;;;;;;;;;;30.80;46.20;;;;;;5050767;28;19932;-68
2024/02/18 11:08:59;;;;;;;;;;;30.50;46.50;;;;;;5044079;28;19928;-68
2024/02/18 11:11:28;;;;;;;;;;;30.10;46.30;;;;;;5053737;28;19929;-69
2024/02/18 11:13:57;;;;;;;;;;;29.90;46.60;;;;;;5067063;28;19951;-68
2024/02/18 11:16:26;;;;;;;;;;;29.20;45.10;;;;;;5054635;28;19928;-66
2024/02/18 11:18:58;;;;;;;;;;;28.30;45.80;;;;;;5068893;28;20032;-68
2024/02/18 11:21:27;;;;;;;;;;;27.70;46.60;;;;;;5053565;28;19935;-66
2024/02/18 11:23:56;;;;;;;;;;;27.20;47.50;;;;;;5048825;28;20426;-70
2024/02/18 11:26:25;;;;;;;;;;;26.60;46.90;;;;;;5054814;28;19933;-68
2024/02/18 11:28:53;;;;;;;;;;;25.80;47.80;;;;;;5052149;28;19971;-68
2024/02/18 11:31:22;;;;;;;;;;;24.90;48.20;;;;;;5055682;28;20271;-68
2024/02/18 11:33:49;;;;;;;;;;;23.90;48.50;;;;;;5044887;28;19928;-68
2024/02/18 11:36:19;;;;;;;;;;;22.90;49.70;;;;;;5052737;28;19979;-67
2024/02/18 11:38:48;;;;;;;;;;;22.00;50.80;;;;;;5054938;28;19932;-68
2024/02/18 11:41:18;;;;;;;;;;;21.40;51.90;;;;;;5056431;28;19931;-70
2024/02/18 11:43:53;;;;;;;;;;;20.90;52.80;;;;;;5061260;28;19932;-68
2024/02/18 11:46:23;;;;;;;;;;;20.50;53.40;;;;;;5055162;28;19928;-70
2024/02/18 11:48:52;;;;;;;;;;;20.20;53.90;;;;;;5053470;28;19928;-68
2024/02/18 11:51:22;;;;;;;;;;;19.90;54.30;;;;;;5055986;28;20265;-70
2024/02/18 11:53:52;;;;;;;;;;;19.80;54.60;;;;;;5049158;28;19929;-67
2024/02/18 11:56:20;;;;;;;;;;;19.70;54.90;;;;;;5056942;28;19928;-68
2024/02/18 11:58:50;;;;;;;;;;;19.60;55.00;;;;;;5051836;28;20026;-68
2024/02/18 12:01:20;;;;;;;;;;;19.60;55.10;;;;;;5052833;28;19931;-69
2024/02/18 12:03:48;;;;;;;;;;;19.50;55.10;;;;;;5050074;28;19935;-67
2024/02/18 12:06:17;;;;;;;;;;;19.50;55.20;;;;;;5051032;28;19936;-68
2024/02/18 12:08:48;;;;;;;;;;;19.40;55.20;;;;;;5048284;28;19936;-69
2024/02/18 12:11:16;;;;;;;;;;;19.40;55.30;;;;;;5070961;28;19928;-67
2024/02/18 12:13:45;;;;;;;;;;;19.40;55.20;;;;;;5050785;28;20027;-68
2024/02/18 12:16:13;;;;;;;;;;;19.30;55.20;;;;;;5044268;28;19928;-69
2024/02/18 12:18:41;;;;;;;;;;;19.30;55.30;;;;;;5051339;28;20361;-67
2024/02/18 12:21:14;;;;;;;;;;;19.30;55.40;;;;;;5050806;28;19932;-68
2024/02/18 12:23:42;;;;;;;;;;;19.30;55.40;;;;;;5050554;28;19975;-67
2024/02/18 12:26:14;;;;;;;;;;;19.40;55.50;;;;;;5038727;28;20850;-70
2024/02/18 12:28:42;;;;;;;;;;;19.40;55.50;;;;;;5050570;28;19925;-72
2024/02/18 12:31:45;;;;;;;;;;;19.50;55.40;;;;;;4593781;27;5785546;-67
2024/02/18 12:34:18;;;;;;;;;;;19.60;55.40;;;;;;5084648;27;19989;-68
2024/02/18 12:38:29;;;;;;;;;;;19.60;55.30;;;;;;5060039;27;19924;-71
2024/02/18 12:40:58;;;;;;;;;;;19.70;55.30;;;;;;5052796;28;20031;-70
2024/02/18 12:43:28;;;;;;;;;;;19.80;55.30;;;;;;5057995;28;20345;-70
2024/02/18 12:46:16;;;;;;;;;;;19.80;55.30;;;;;;5052199;28;20669;-72
2024/02/18 12:48:44;;;;;;;;;;;19.80;55.10;;;;;;5056549;28;19928;-70
2024/02/18 12:51:13;;;;;;;;;;;19.80;55.10;;;;;;5058256;28;19940;-70
2024/02/18 12:53:44;;;;;;;;;;;19.80;55.20;;;;;;5049026;28;19928;-72
2024/02/18 12:56:12;;;;;;;;;;;19.80;55.20;;;;;;5040712;28;19931;-71
2024/02/18 12:58:41;;;;;;;;;;;19.90;55.10;;;;;;5034606;28;19924;-71
2024/02/18 13:01:09;;;;;;;;;;;19.90;55.30;;;;;;5051980;28;19935;-70
2024/02/18 13:03:39;;;;;;;;;;;19.90;55.20;;;;;;5019523;28;19988;-71
2024/02/18 13:06:10;;;;;;;;;;;20.00;55.10;;;;;;5019513;28;19932;-71
2024/02/18 13:08:38;;;;;;;;;;;20.10;55.30;;;;;;5021567;28;19953;-76
2024/02/18 13:11:15;;;;;;;;;;;20.10;55.20;;;;;;5037736;28;19929;-68
2024/02/18 13:13:45;;;;;;;;;;;20.10;55.10;;;;;;5020660;28;19980;-70
2024/02/18 13:16:13;;;;;;;;;;;20.20;55.20;;;;;;5020425;28;20023;-68
2024/02/18 13:18:42;;;;;;;;;;;20.30;55.10;;;;;;5016733;28;19940;-68
2024/02/18 13:21:11;;;;;;;;;;;20.30;55.00;;;;;;5017365;28;19935;-65
2024/02/18 13:23:41;;;;;;;;;;;20.40;55.00;;;;;;5030295;28;20379;-69
2024/02/18 13:26:11;;;;;;;;;;;20.40;54.90;;;;;;5032354;28;19925;-70
2024/02/18 13:28:39;;;;;;;;;;;20.50;54.90;;;;;;5023522;28;20499;-68
2024/02/18 13:31:08;;;;;;;;;;;20.50;54.90;;;;;;5019162;28;19929;-68
2024/02/18 13:33:37;;;;;;;;;;;20.50;55.00;;;;;;5033755;28;20357;-67
2024/02/18 13:36:06;;;;;;;;;;;20.60;54.80;;;;;;5025215;28;20027;-68
2024/02/18 13:38:34;;;;;;;;;;;20.60;54.80;;;;;;5033293;28;20016;-68
2024/02/18 13:41:04;;;;;;;;;;;20.60;54.80;;;;;;5021344;28;19940;-65
2024/02/18 13:43:34;;;;;;;;;;;20.60;54.70;;;;;;5016281;28;20404;-68
2024/02/18 13:46:02;;;;;;;;;;;20.70;54.80;;;;;;5025532;28;19979;-68
2024/02/18 13:48:34;;;;;;;;;;;20.70;54.70;;;;;;5019718;28;19944;-65
2024/02/18 13:51:02;;;;;;;;;;;20.70;55.40;;;;;;5011027;28;19932;-66
2024/02/18 13:53:31;;;;;;;;;;;20.80;54.70;;;;;;5003930;28;20442;-66
2024/02/18 13:55:59;;;;;;;;;;;20.80;54.70;;;;;;5013793;28;19976;-66
2024/02/18 13:58:28;;;;;;;;;;;20.80;54.50;;;;;;5025545;28;20027;-65
2024/02/18 14:00:58;;;;;;;;;;;20.80;54.40;;;;;;5011231;28;20545;-65
2024/02/18 14:03:26;;;;;;;;;;;20.70;54.40;;;;;;5010615;28;20024;-65
2024/02/18 14:05:55;;;;;;;;;;;20.80;54.70;;;;;;4999620;28;20395;-68
2024/02/18 14:08:24;;;;;;;;;;;20.80;54.60;;;;;;5014070;28;20378;-65
2024/02/18 14:10:52;;;;;;;;;;;20.70;54.40;;;;;;5015171;28;19950;-67
2024/02/18 14:13:22;;;;;;;;;;;20.70;54.50;;;;;;5016164;28;19947;-65
2024/02/18 14:15:53;;;;;;;;;;;20.70;54.50;;;;;;5011934;28;19940;-65
2024/02/18 14:18:23;;;;;;;;;;;20.70;54.50;;;;;;5002074;28;19933;-65
2024/02/18 14:20:52;;;;;;;;;;;20.70;54.50;;;;;;5016868;28;20052;-65
2024/02/18 14:23:23;;;;;;;;;;;20.70;54.40;;;;;;5011320;28;20676;-65
2024/02/18 14:25:51;;;;;;;;;;;20.70;54.30;;;;;;5010746;28;19929;-65
2024/02/18 14:28:20;;;;;;;;;;;20.70;54.40;;;;;;5002490;28;20581;-64